createdAt,value
2018-05-12T00:01:55.172Z,55.27
2018-05-12T00:04:27.671Z,55.07
2018-05-12T00:07:00.193Z,54.92
2018-05-12T00:09:32.711Z,55.03
2018-05-12T00:12:05.266Z,55.34
2018-05-12T00:14:37.772Z,54.87
2018-05-12T00:17:10.299Z,54.96
2018-05-12T00:19:42.799Z,55.10
2018-05-12T00:22:15.315Z,55.51
2018-05-12T00:24:47.848Z,56.03
2018-05-12T00:27:20.350Z,56.36
2018-05-12T00:29:52.876Z,55.79
2018-05-12T00:32:25.376Z,55.73
2018-05-12T00:34:57.911Z,55.89
2018-05-12T00:37:30.403Z,55.94
2018-05-12T00:40:03.201Z,56.52
2018-05-12T00:42:35.699Z,57.34
2018-05-12T00:45:08.211Z,57.08
2018-05-12T00:47:40.716Z,56.97
2018-05-12T00:50:13.231Z,56.99
2018-05-12T00:52:45.737Z,57.19
2018-05-12T00:55:18.265Z,57.58
2018-05-12T00:57:50.774Z,57.57
2018-05-12T01:00:23.303Z,57.48
2018-05-12T01:02:55.801Z,58.12
2018-05-12T01:05:28.320Z,57.71
2018-05-12T01:08:00.816Z,57.59
2018-05-12T01:10:33.896Z,57.88
2018-05-12T01:13:06.397Z,58.21
2018-05-12T01:15:38.915Z,58.40
2018-05-12T01:18:11.418Z,58.14
2018-05-12T01:20:43.943Z,57.69
2018-05-12T01:23:16.458Z,57.81
2018-05-12T01:25:48.977Z,57.68
2018-05-12T01:28:21.475Z,57.52
2018-05-12T01:30:54.001Z,58.05
2018-05-12T01:33:26.553Z,58.01
2018-05-12T01:35:59.091Z,58.25
2018-05-12T01:38:31.583Z,58.43
2018-05-12T01:41:04.451Z,58.18
2018-05-12T01:43:36.946Z,58.23
2018-05-12T01:46:09.478Z,57.96
2018-05-12T01:48:41.975Z,58.10
2018-05-12T01:51:14.488Z,58.33
2018-05-12T01:53:46.983Z,58.33
2018-05-12T01:56:19.507Z,57.73
2018-05-12T01:58:52.025Z,57.93
2018-05-12T02:01:24.547Z,58.26
2018-05-12T02:03:57.047Z,58.24
2018-05-12T02:06:29.572Z,58.40
2018-05-12T02:09:02.072Z,58.38
2018-05-12T02:11:35.412Z,58.20
2018-05-12T02:14:07.916Z,58.22
2018-05-12T02:16:40.426Z,58.11
2018-05-12T02:19:12.927Z,58.24
2018-05-12T02:21:45.458Z,58.23
2018-05-12T02:24:17.954Z,58.25
2018-05-12T02:26:50.476Z,58.55
2018-05-12T02:29:22.971Z,58.30
2018-05-12T02:31:55.488Z,58.34
2018-05-12T02:34:27.981Z,58.50
2018-05-12T02:37:00.503Z,58.73
2018-05-12T02:39:33.115Z,58.74
2018-05-12T02:42:05.627Z,58.34
2018-05-12T02:44:38.132Z,58.27
2018-05-12T02:47:10.653Z,58.19
2018-05-12T02:49:43.162Z,58.33
2018-05-12T02:52:15.679Z,58.52
2018-05-12T02:54:48.187Z,58.79
2018-05-12T02:57:20.703Z,59.00
2018-05-12T02:59:53.213Z,59.16
2018-05-12T03:02:25.744Z,59.41
2018-05-12T03:04:58.236Z,59.04
2018-05-12T03:07:30.747Z,58.85
2018-05-12T03:10:03.507Z,58.69
2018-05-12T03:12:36.032Z,58.70
2018-05-12T03:15:08.536Z,58.79
2018-05-12T03:17:41.052Z,58.69
2018-05-12T03:20:13.557Z,58.92
2018-05-12T03:22:46.068Z,58.97
2018-05-12T03:25:18.564Z,59.03
2018-05-12T03:27:51.070Z,58.87
2018-05-12T03:30:23.574Z,58.79
2018-05-12T03:32:56.128Z,58.89
2018-05-12T03:35:28.620Z,58.79
2018-05-12T03:38:01.135Z,58.74
2018-05-12T03:40:34.527Z,58.77
2018-05-12T03:43:07.075Z,59.02
2018-05-12T03:45:39.572Z,59.03
2018-05-12T03:48:12.092Z,59.04
2018-05-12T03:50:44.588Z,59.10
2018-05-12T03:53:17.117Z,59.20
2018-05-12T03:55:49.627Z,59.32
2018-05-12T03:58:22.158Z,59.28
2018-05-12T04:00:54.667Z,59.09
2018-05-12T04:03:27.183Z,59.57
2018-05-12T04:06:11.612Z,59.50
2018-05-12T04:08:55.954Z,59.36
2018-05-12T04:11:40.409Z,59.33
2018-05-12T04:14:13.741Z,59.30
2018-05-12T04:16:46.253Z,59.63
2018-05-12T04:19:18.753Z,59.64
2018-05-12T04:21:51.267Z,59.29
2018-05-12T04:24:23.779Z,59.49
2018-05-12T04:26:56.296Z,59.42
2018-05-12T04:29:28.794Z,59.25
2018-05-12T04:32:01.320Z,59.39
2018-05-12T04:34:34.291Z,59.48
2018-05-12T04:37:06.831Z,59.79
2018-05-12T04:39:39.331Z,59.68
2018-05-12T04:42:11.856Z,59.72
2018-05-12T04:44:44.367Z,59.71
2018-05-12T04:47:16.895Z,60.29
2018-05-12T04:49:49.432Z,60.19
2018-05-12T04:52:21.960Z,59.83
2018-05-12T04:54:54.619Z,59.79
2018-05-12T04:57:27.132Z,59.73
2018-05-12T04:59:59.634Z,59.85
2018-05-12T05:02:32.159Z,60.11
2018-05-12T05:05:05.495Z,60.17
2018-05-12T05:07:38.027Z,59.97
2018-05-12T05:10:10.599Z,60.19
2018-05-12T05:12:43.128Z,60.06
2018-05-12T05:15:16.574Z,60.10
2018-05-12T05:17:49.108Z,60.43
2018-05-12T05:20:22.594Z,60.04
2018-05-12T05:22:55.127Z,59.68
2018-05-12T05:25:27.640Z,59.36
2018-05-12T05:28:00.186Z,59.49
2018-05-12T05:30:32.688Z,59.64
2018-05-12T05:33:05.835Z,60.35
2018-05-12T05:35:38.340Z,60.20
2018-05-12T05:38:10.868Z,59.99
2018-05-12T05:40:43.371Z,60.07
2018-05-12T05:43:15.887Z,59.91
2018-05-12T05:45:48.396Z,60.11
2018-05-12T05:48:20.920Z,60.03
2018-05-12T05:50:53.423Z,60.02
2018-05-12T05:53:25.956Z,60.08
2018-05-12T05:55:58.467Z,60.25
2018-05-12T05:58:31.034Z,60.31
2018-05-12T06:01:04.283Z,60.41
2018-05-12T06:03:36.819Z,60.16
2018-05-12T06:06:09.329Z,60.41
2018-05-12T06:08:41.859Z,60.19
2018-05-12T06:11:14.384Z,59.50
2018-05-12T06:13:46.922Z,59.87
2018-05-12T06:16:19.424Z,60.22
2018-05-12T06:18:51.957Z,59.60
2018-05-12T06:21:24.854Z,59.25
2018-05-12T06:23:57.992Z,58.35
2018-05-12T06:26:31.711Z,59.50
2018-05-12T06:29:04.445Z,59.01
2018-05-12T06:31:37.403Z,59.89
2018-05-12T06:34:10.181Z,60.04
2018-05-12T06:36:42.792Z,59.27
2018-05-12T06:39:15.814Z,58.60
2018-05-12T06:41:48.604Z,58.26
2018-05-12T06:44:22.307Z,58.71
2018-05-12T06:46:55.219Z,58.41
2018-05-12T06:49:27.787Z,58.38
2018-05-12T06:52:00.304Z,58.50
2018-05-12T06:54:32.827Z,58.69
2018-05-12T06:57:05.761Z,58.48
2018-05-12T06:59:38.355Z,58.51
2018-05-12T07:02:10.921Z,57.66
2018-05-12T07:04:43.968Z,57.35
2018-05-12T07:07:16.768Z,57.26
2018-05-12T07:09:49.917Z,57.75
2018-05-12T07:12:22.962Z,56.79
2018-05-12T07:14:55.859Z,56.79
2018-05-12T07:17:28.859Z,56.30
2018-05-12T07:20:02.055Z,55.80
2018-05-12T07:22:35.137Z,55.17
2018-05-12T07:25:07.731Z,54.37
2018-05-12T07:27:40.235Z,54.24
2018-05-12T07:30:12.750Z,55.20
2018-05-12T07:32:45.274Z,54.34
2018-05-12T07:35:17.804Z,55.27
2018-05-12T07:37:50.991Z,54.61
2018-05-12T07:40:23.495Z,53.49
2018-05-12T07:42:56.020Z,53.05
2018-05-12T07:45:28.582Z,52.74
2018-05-12T07:48:01.080Z,51.43
2018-05-12T07:50:33.644Z,51.60
2018-05-12T07:53:06.171Z,51.62
2018-05-12T07:55:38.683Z,51.53
2018-05-12T07:58:11.235Z,50.95
2018-05-12T08:00:43.755Z,49.08
2018-05-12T08:03:16.286Z,49.80
2018-05-12T08:05:48.789Z,49.61
2018-05-12T08:08:22.131Z,48.76
2018-05-12T08:10:54.645Z,48.36
2018-05-12T08:13:27.175Z,47.10
2018-05-12T08:15:59.697Z,48.15
2018-05-12T08:18:32.223Z,46.26
2018-05-12T08:21:04.732Z,47.20
2018-05-12T08:23:37.251Z,45.20
2018-05-12T08:26:09.871Z,45.25
2018-05-12T08:28:42.352Z,45.52
2018-05-12T08:31:14.861Z,44.53
2018-05-12T08:33:47.379Z,43.28
2018-05-12T08:36:19.924Z,44.41
2018-05-12T08:38:52.448Z,42.85
2018-05-12T08:41:24.963Z,44.43
2018-05-12T08:43:57.495Z,44.71
2018-05-12T08:46:30.021Z,44.00
2018-05-12T08:49:02.556Z,41.99
2018-05-12T08:51:35.067Z,42.90
2018-05-12T08:54:07.588Z,43.01
2018-05-12T08:56:40.117Z,43.25
2018-05-12T08:59:12.635Z,42.73
2018-05-12T09:01:45.146Z,43.04
2018-05-12T09:04:17.686Z,42.70
2018-05-12T09:06:50.922Z,42.52
2018-05-12T09:09:23.454Z,40.15
2018-05-12T09:11:55.965Z,38.60
2018-05-12T09:14:28.491Z,38.70
2018-05-12T09:17:00.996Z,40.67
2018-05-12T09:19:33.516Z,40.79
2018-05-12T09:22:06.017Z,41.08
2018-05-12T09:24:38.546Z,40.82
2018-05-12T09:27:11.063Z,41.08
2018-05-12T09:29:43.586Z,42.51
2018-05-12T09:32:16.083Z,41.64
2018-05-12T09:34:48.620Z,40.31
2018-05-12T09:37:21.907Z,41.40
2018-05-12T09:39:54.391Z,41.36
2018-05-12T09:42:26.997Z,39.68
2018-05-12T09:44:59.455Z,39.93
2018-05-12T09:47:32.052Z,39.55
2018-05-12T09:50:04.521Z,38.78
2018-05-12T09:52:37.025Z,39.43
2018-05-12T09:55:09.557Z,38.36
2018-05-12T09:57:42.051Z,37.83
2018-05-12T10:00:16.319Z,36.57
2018-05-12T10:02:48.819Z,38.40
2018-05-12T10:05:21.969Z,37.86
2018-05-12T10:07:54.476Z,38.90
2018-05-12T10:10:26.991Z,36.84
2018-05-12T10:12:59.499Z,38.32
2018-05-12T10:15:32.113Z,38.47
2018-05-12T10:18:04.552Z,37.53
2018-05-12T10:20:37.079Z,37.59
2018-05-12T10:23:09.582Z,38.51
2018-05-12T10:25:42.096Z,36.66
2018-05-12T10:28:14.600Z,36.16
2018-05-12T10:30:47.131Z,38.55
2018-05-12T10:33:21.313Z,38.35
2018-05-12T10:35:53.836Z,36.72
2018-05-12T10:42:35.612Z,37.18
2018-05-12T10:45:08.130Z,36.16
2018-05-12T10:47:40.640Z,35.24
2018-05-12T10:50:13.164Z,33.29
2018-05-12T10:52:45.660Z,33.04
2018-05-12T10:55:18.177Z,32.38
2018-05-12T10:57:50.680Z,33.07
2018-05-12T11:00:23.199Z,34.39
2018-05-12T11:02:55.700Z,34.31
2018-05-12T11:05:28.209Z,34.99
2018-05-12T11:08:00.709Z,34.54
2018-05-12T11:10:33.231Z,34.64
2018-05-12T11:13:05.732Z,34.56
2018-05-12T11:15:38.256Z,34.10
2018-05-12T11:18:10.752Z,33.15
2018-05-12T11:20:43.281Z,32.95
2018-05-12T11:23:15.804Z,31.95
2018-05-12T11:25:48.326Z,31.61
2018-05-12T11:28:20.829Z,33.58
2018-05-12T11:30:53.343Z,33.24
2018-05-12T11:33:25.846Z,33.61
2018-05-12T11:35:58.374Z,33.41
2018-05-12T11:38:30.884Z,33.29
2018-05-12T11:41:03.418Z,34.37
2018-05-12T11:43:35.928Z,34.26
2018-05-12T11:46:08.562Z,33.17
2018-05-12T11:48:41.072Z,33.88
2018-05-12T11:51:13.588Z,34.50
2018-05-12T11:53:46.108Z,33.11
2018-05-12T11:56:18.628Z,34.55
2018-05-12T11:58:51.158Z,32.99
2018-05-12T12:01:23.702Z,30.71
2018-05-12T12:03:56.200Z,28.33
2018-05-12T12:06:28.876Z,29.35
2018-05-12T12:09:01.387Z,28.66
2018-05-12T12:11:34.043Z,29.04
2018-05-12T12:14:06.543Z,30.23
2018-05-12T12:16:39.093Z,30.05
2018-05-12T12:19:11.605Z,31.10
2018-05-12T12:21:44.129Z,30.56
2018-05-12T12:24:16.640Z,30.46
2018-05-12T12:26:49.168Z,30.23
2018-05-12T12:29:21.696Z,29.61
2018-05-12T12:31:54.207Z,32.08
2018-05-12T12:34:26.741Z,31.45
2018-05-12T12:36:59.237Z,32.26
2018-05-12T12:39:31.805Z,31.14
2018-05-12T12:42:04.299Z,31.53
2018-05-12T12:44:36.813Z,31.52
2018-05-12T12:47:09.323Z,31.25
2018-05-12T12:49:41.854Z,31.72
2018-05-12T12:52:14.361Z,29.79
2018-05-12T12:54:46.886Z,30.19
2018-05-12T12:57:19.394Z,31.16
2018-05-12T12:59:51.917Z,30.86
2018-05-12T13:02:24.438Z,31.70
2018-05-12T13:04:57.115Z,31.78
2018-05-12T13:07:29.555Z,31.15
2018-05-12T13:10:02.116Z,31.01
2018-05-12T13:12:34.633Z,32.28
2018-05-12T13:15:07.237Z,32.23
2018-05-12T13:17:39.684Z,31.42
2018-05-12T13:20:12.210Z,31.75
2018-05-12T13:22:46.200Z,32.46
2018-05-12T13:25:18.718Z,31.62
2018-05-12T13:27:51.261Z,31.95
2018-05-12T13:30:23.771Z,31.25
2018-05-12T13:32:56.419Z,30.47
2018-05-12T13:35:28.941Z,29.86
2018-05-12T13:38:01.488Z,29.74
2018-05-12T13:40:34.148Z,30.44
2018-05-12T13:43:06.689Z,31.57
2018-05-12T13:45:39.213Z,30.84
2018-05-12T13:48:11.729Z,31.04
2018-05-12T13:50:44.245Z,30.40
2018-05-12T13:53:16.750Z,30.06
2018-05-12T13:55:49.370Z,30.16
2018-05-12T13:58:21.796Z,31.01
2018-05-12T14:00:54.322Z,31.32
2018-05-12T14:03:26.810Z,30.66
2018-05-12T14:05:59.322Z,30.88
2018-05-12T14:08:31.860Z,30.07
2018-05-12T14:11:04.381Z,30.96
2018-05-12T14:13:36.876Z,31.39
2018-05-12T14:16:09.473Z,31.46
2018-05-12T14:18:41.923Z,31.96
2018-05-12T14:21:14.435Z,31.11
2018-05-12T14:23:46.925Z,30.80
2018-05-12T14:26:19.449Z,30.93
2018-05-12T14:28:51.962Z,31.92
2018-05-12T14:31:24.490Z,30.67
2018-05-12T14:33:57.009Z,30.86
2018-05-12T14:36:29.526Z,31.90
2018-05-12T14:39:02.034Z,31.84
2018-05-12T14:41:34.548Z,32.00
2018-05-12T14:44:07.038Z,33.95
2018-05-12T14:46:39.552Z,32.50
2018-05-12T14:49:12.054Z,32.52
2018-05-12T14:51:44.572Z,33.13
2018-05-12T14:54:17.076Z,34.08
2018-05-12T14:56:49.602Z,34.29
2018-05-12T14:59:22.109Z,34.72
2018-05-12T15:01:54.618Z,33.65
2018-05-12T15:04:27.128Z,34.01
2018-05-12T15:06:59.656Z,33.98
2018-05-12T15:09:32.161Z,34.58
2018-05-12T15:12:04.711Z,34.75
2018-05-12T15:14:37.199Z,34.68
2018-05-12T15:17:09.724Z,34.42
2018-05-12T15:19:42.226Z,34.43
2018-05-12T15:22:14.742Z,35.25
2018-05-12T15:24:47.239Z,34.11
2018-05-12T15:27:19.759Z,34.69
2018-05-12T15:29:52.258Z,34.87
2018-05-12T15:32:24.780Z,34.75
2018-05-12T15:34:57.315Z,35.03
2018-05-12T15:37:29.831Z,35.28
2018-05-12T15:40:02.342Z,35.46
2018-05-12T15:42:34.868Z,36.04
2018-05-12T15:45:07.366Z,35.67
2018-05-12T15:47:39.898Z,35.45
2018-05-12T15:50:12.387Z,35.11
2018-05-12T15:52:44.900Z,35.16
2018-05-12T15:55:18.408Z,35.38
2018-05-12T15:57:50.925Z,35.96
2018-05-12T16:00:23.432Z,36.05
2018-05-12T16:02:55.974Z,36.25
2018-05-12T16:05:28.488Z,37.11
2018-05-12T16:08:01.004Z,36.62
2018-05-12T16:10:33.532Z,36.25
2018-05-12T16:13:06.036Z,35.52
2018-05-12T16:15:38.560Z,37.28
2018-05-12T16:18:11.057Z,36.18
2018-05-12T16:20:43.574Z,35.87
2018-05-12T16:23:16.069Z,35.66
2018-05-12T16:25:48.615Z,34.80
2018-05-12T16:28:21.123Z,35.83
2018-05-12T16:30:53.660Z,35.62
2018-05-12T16:33:26.164Z,36.44
2018-05-12T16:35:58.676Z,38.12
2018-05-12T16:38:31.229Z,35.94
2018-05-12T16:41:03.753Z,37.10
2018-05-12T16:43:36.249Z,35.97
2018-05-12T16:46:08.765Z,37.73
2018-05-12T16:51:19.466Z,37.72
2018-05-12T16:53:51.968Z,36.34
2018-05-12T16:56:24.492Z,37.46
2018-05-12T16:58:57.031Z,38.63
2018-05-12T17:01:29.544Z,36.56
2018-05-12T17:04:02.755Z,36.59
2018-05-12T17:06:35.302Z,36.23
2018-05-12T17:09:07.809Z,36.11
2018-05-12T17:11:40.835Z,35.72
2018-05-12T17:14:13.329Z,36.21
2018-05-12T17:16:45.883Z,36.46
2018-05-12T17:19:18.385Z,36.02
2018-05-12T17:21:50.897Z,35.91
2018-05-12T17:24:23.405Z,36.00
2018-05-12T17:26:55.919Z,36.05
2018-05-12T17:29:28.429Z,36.80
2018-05-12T17:32:00.950Z,36.29
2018-05-12T17:34:35.772Z,36.78
2018-05-12T17:37:08.293Z,36.94
2018-05-12T17:39:41.296Z,37.39
2018-05-12T17:42:13.846Z,37.40
2018-05-12T17:44:46.350Z,37.33
2018-05-12T17:47:18.869Z,38.00
2018-05-12T17:49:51.367Z,38.30
2018-05-12T17:52:23.912Z,38.16
2018-05-12T17:54:56.416Z,37.89
2018-05-12T17:57:28.965Z,37.84
2018-05-12T18:00:01.470Z,37.93
2018-05-12T18:02:33.992Z,37.71
2018-05-12T18:05:06.556Z,38.00
2018-05-12T18:07:39.094Z,37.98
2018-05-12T18:10:11.617Z,38.11
2018-05-12T18:12:44.146Z,38.20
2018-05-12T18:15:16.653Z,38.39
2018-05-12T18:17:49.171Z,38.63
2018-05-12T18:20:21.678Z,39.11
2018-05-12T18:22:54.188Z,38.98
2018-05-12T18:25:26.702Z,38.89
2018-05-12T18:27:59.267Z,38.95
2018-05-12T18:30:31.785Z,39.21
2018-05-12T18:33:04.304Z,39.28
2018-05-12T18:35:36.831Z,39.50
2018-05-12T18:38:09.361Z,39.44
2018-05-12T18:40:41.878Z,39.84
2018-05-12T18:43:14.407Z,40.18
2018-05-12T18:45:46.912Z,40.49
2018-05-12T18:48:20.009Z,40.84
2018-05-12T18:50:52.517Z,41.11
2018-05-12T18:53:25.035Z,41.32
2018-05-12T18:55:57.546Z,41.71
2018-05-12T18:58:30.133Z,42.06
2018-05-12T19:01:04.288Z,41.93
2018-05-12T19:03:36.837Z,42.33
2018-05-12T19:06:10.093Z,42.39
2018-05-12T19:08:51.647Z,42.60
2018-05-12T19:11:24.768Z,43.23
2018-05-12T19:13:57.288Z,43.52
2018-05-12T19:16:29.789Z,43.64
2018-05-12T19:19:02.311Z,44.12
2018-05-12T19:21:35.423Z,44.60
2018-05-12T19:24:07.949Z,44.10
2018-05-12T19:26:40.542Z,44.16
2018-05-12T19:29:13.110Z,44.22
2018-05-12T19:31:45.635Z,44.45
2018-05-12T19:34:18.130Z,44.41
2018-05-12T19:36:50.655Z,44.39
2018-05-12T19:39:23.178Z,44.51
2018-05-12T19:41:55.716Z,44.37
2018-05-12T19:44:28.573Z,44.62
2018-05-12T19:47:01.120Z,44.44
2018-05-12T19:49:33.707Z,44.25
2018-05-12T19:52:06.382Z,44.38
2018-05-12T19:54:38.880Z,44.35
2018-05-12T19:57:11.398Z,44.25
2018-05-12T19:59:43.902Z,44.30
2018-05-12T20:02:16.474Z,44.40
2018-05-12T20:04:49.017Z,44.59
2018-05-12T20:07:21.557Z,45.07
2018-05-12T20:09:55.030Z,44.87
2018-05-12T20:12:27.537Z,44.79
2018-05-12T20:15:00.041Z,45.52
2018-05-12T20:17:32.550Z,44.94
2018-05-12T20:20:05.075Z,45.18
2018-05-12T20:22:37.606Z,45.20
2018-05-12T20:25:10.114Z,45.04
2018-05-12T20:27:42.648Z,45.03
2018-05-12T20:30:15.145Z,45.43
2018-05-12T20:32:47.667Z,46.12
2018-05-12T20:35:20.176Z,46.17
2018-05-12T20:37:52.708Z,45.88
2018-05-12T20:40:25.228Z,45.91
2018-05-12T20:42:57.756Z,45.92
2018-05-12T20:45:30.269Z,46.18
2018-05-12T20:48:02.801Z,46.42
2018-05-12T20:50:35.340Z,46.67
2018-05-12T20:53:07.873Z,46.42
2018-05-12T20:58:19.270Z,47.17
2018-05-12T21:00:51.795Z,46.80
2018-05-12T21:03:24.398Z,47.50
2018-05-12T21:05:58.312Z,47.33
2018-05-12T21:08:31.987Z,47.25
2018-05-12T21:11:05.830Z,47.19
2018-05-12T21:13:38.741Z,47.49
2018-05-12T21:16:11.999Z,47.93
2018-05-12T21:18:46.397Z,47.75
2018-05-12T21:21:19.301Z,47.88
2018-05-12T21:23:52.462Z,48.25
2018-05-12T21:26:25.374Z,48.13
2018-05-12T21:28:58.413Z,48.21
2018-05-12T21:31:32.243Z,49.03
2018-05-12T21:34:05.164Z,48.56
2018-05-12T21:36:38.670Z,48.74
2018-05-12T21:39:12.457Z,48.46
2018-05-12T21:41:45.277Z,48.77
2018-05-12T21:44:18.782Z,48.51
2018-05-12T21:46:51.852Z,49.19
2018-05-12T21:49:24.726Z,49.05
2018-05-12T21:51:57.694Z,49.28
2018-05-12T21:54:30.837Z,49.35
2018-05-12T21:57:03.732Z,49.29
2018-05-12T21:59:37.454Z,49.77
2018-05-12T22:02:10.317Z,49.91
2018-05-12T22:04:44.520Z,49.92
2018-05-12T22:07:17.561Z,50.17
2018-05-12T22:09:53.050Z,50.05
2018-05-12T22:12:25.975Z,50.47
2018-05-12T22:14:58.744Z,50.53
2018-05-12T22:17:31.259Z,50.32
2018-05-12T22:20:04.153Z,50.68
2018-05-12T22:22:37.156Z,50.12
2018-05-12T22:25:10.205Z,49.91
2018-05-12T22:27:43.830Z,50.33
2018-05-12T22:30:16.753Z,50.20
2018-05-12T22:32:49.779Z,50.55
2018-05-12T22:35:23.586Z,49.96
2018-05-12T22:37:57.620Z,49.98
2018-05-12T22:40:34.455Z,50.00
2018-05-12T22:43:08.048Z,50.38
2018-05-12T22:45:40.697Z,50.48
2018-05-12T22:48:13.281Z,50.68
2018-05-12T22:50:45.832Z,50.98
2018-05-12T22:53:18.449Z,50.72
2018-05-12T22:55:51.012Z,50.71
2018-05-12T22:58:23.667Z,50.53
2018-05-12T23:00:56.277Z,50.40
2018-05-12T23:03:28.948Z,50.37
2018-05-12T23:06:01.454Z,50.33
2018-05-12T23:08:34.012Z,50.60
2018-05-12T23:11:06.532Z,50.50
2018-05-12T23:13:39.116Z,50.56
2018-05-12T23:16:11.711Z,50.34
2018-05-12T23:18:44.404Z,51.33
2018-05-12T23:21:16.909Z,51.53
2018-05-12T23:23:49.441Z,51.25
2018-05-12T23:26:21.948Z,51.62
2018-05-12T23:28:54.477Z,51.33
2018-05-12T23:31:26.985Z,51.33
2018-05-12T23:33:59.517Z,51.52
2018-05-12T23:36:32.033Z,51.63
2018-05-12T23:39:04.582Z,51.99
2018-05-12T23:41:37.145Z,52.70
2018-05-12T23:44:09.685Z,52.35
2018-05-12T23:46:42.443Z,52.01
2018-05-12T23:49:14.979Z,52.80
2018-05-12T23:51:47.488Z,52.30
2018-05-12T23:54:20.018Z,52.47
2018-05-12T23:56:52.524Z,52.80
2018-05-12T23:59:25.053Z,52.93
